Ben Arnold, Texas
Current Conditions -  °F | °C
As of 1:35 PM on Tuesday 21 Oct 2014 (Local Time) from KT35 Reporting Station
Clear Clear  
Wind Chill: 79°   Ceiling: Unl
Heat Index: 79°   Visibility: 10mi
Dew Point: 50°   Wind: 5mph
Humidity: 36%   Direction: 100°E
Pressure: 30.06"   Gusts: NA
Location:  30.9882°N, 97.103°W
Report Text: KT35 211835Z AUTO 10004KT 10SM CLR 26/10 A3006 RMK AO2 T02630100
Loading
Personal Weather Stations






























Interactive Weather Map New forecast layout! Learn more

10-Day Weather Forecast

Advertisements
Track Severe Weather on mobile